createdAt,value
2023-02-16T00:00:30.811Z,27.50
2023-02-16T00:02:57.982Z,34.37
2023-02-16T00:05:27.400Z,24.90
2023-02-16T00:07:55.541Z,25.37
2023-02-16T00:10:23.360Z,29.70
2023-02-16T00:13:09.338Z,25.77
2023-02-16T00:15:36.499Z,26.07
2023-02-16T00:18:05.954Z,25.80
2023-02-16T00:20:33.059Z,27.10
2023-02-16T00:23:00.145Z,28.87
2023-02-16T00:25:26.927Z,26.40
2023-02-16T00:27:53.628Z,22.60
2023-02-16T00:30:21.832Z,27.97
2023-02-16T00:32:48.975Z,27.77
2023-02-16T00:35:16.647Z,27.07
2023-02-16T00:37:44.006Z,28.63
2023-02-16T00:40:11.732Z,28.60
2023-02-16T00:42:38.928Z,29.83
2023-02-16T00:45:06.231Z,24.47
2023-02-16T00:47:37.408Z,25.13
2023-02-16T00:50:08.136Z,27.27
2023-02-16T00:52:39.874Z,34.30
2023-02-16T00:55:14.438Z,32.77
2023-02-16T00:57:44.656Z,28.23
2023-02-16T01:00:18.052Z,29.67
2023-02-16T01:02:45.649Z,27.87
2023-02-16T01:05:13.407Z,27.80
2023-02-16T01:07:59.133Z,31.23
2023-02-16T01:10:46.093Z,27.63
2023-02-16T01:13:14.050Z,27.13
2023-02-16T01:15:42.030Z,28.93
2023-02-16T01:18:09.582Z,26.23
2023-02-16T01:20:36.799Z,30.87
2023-02-16T01:23:04.303Z,28.97
2023-02-16T01:25:31.444Z,33.30
2023-02-16T01:27:59.101Z,33.10
2023-02-16T01:30:26.984Z,29.03
2023-02-16T01:32:54.262Z,32.23
2023-02-16T01:35:23.282Z,28.53
2023-02-16T01:37:50.672Z,27.40
2023-02-16T01:40:27.426Z,28.77
2023-02-16T01:42:57.968Z,31.33
2023-02-16T01:45:33.714Z,30.47
2023-02-16T01:48:21.059Z,32.07
2023-02-16T01:51:07.095Z,33.93
2023-02-16T01:53:34.440Z,36.50
2023-02-16T01:56:04.009Z,30.90
2023-02-16T01:58:46.448Z,32.07
2023-02-16T02:01:40.214Z,29.93
2023-02-16T02:04:35.346Z,31.73
2023-02-16T02:07:02.485Z,27.07
2023-02-16T02:09:41.411Z,28.27
2023-02-16T02:12:17.435Z,31.83
2023-02-16T02:14:44.557Z,35.77
2023-02-16T02:17:13.979Z,31.33
2023-02-16T02:20:01.366Z,34.20
2023-02-16T02:23:15.866Z,30.70
2023-02-16T02:25:42.942Z,35.80
2023-02-16T02:28:13.019Z,30.83
2023-02-16T02:30:40.188Z,25.93
2023-02-16T02:33:13.845Z,29.23
2023-02-16T02:35:50.061Z,28.10
2023-02-16T02:38:17.632Z,30.50
2023-02-16T02:41:01.235Z,35.57
2023-02-16T02:43:44.062Z,30.47
2023-02-16T02:46:20.544Z,30.23
2023-02-16T02:48:47.670Z,36.20
2023-02-16T02:51:30.606Z,29.33
2023-02-16T02:54:33.597Z,29.83
2023-02-16T02:57:24.449Z,32.40
2023-02-16T03:00:14.325Z,31.77
2023-02-16T03:02:42.697Z,31.20
2023-02-16T03:05:10.598Z,31.40
2023-02-16T03:07:48.091Z,34.63
2023-02-16T03:10:34.956Z,33.67
2023-02-16T03:13:02.902Z,29.67
2023-02-16T03:15:30.888Z,29.27
2023-02-16T03:18:17.383Z,28.53
2023-02-16T03:21:04.281Z,36.10
2023-02-16T03:23:50.838Z,32.67
2023-02-16T03:26:37.900Z,29.37
2023-02-16T03:29:24.721Z,34.03
2023-02-16T03:31:53.224Z,27.33
2023-02-16T03:34:21.773Z,32.27
2023-02-16T03:36:54.931Z,35.30
2023-02-16T03:39:22.257Z,30.73
2023-02-16T03:41:52.816Z,32.77
2023-02-16T03:44:20.762Z,30.07
2023-02-16T03:46:49.558Z,30.53
2023-02-16T03:49:17.162Z,26.70
2023-02-16T03:51:45.152Z,32.10
2023-02-16T03:54:12.754Z,30.23
2023-02-16T03:56:40.048Z,29.23
2023-02-16T03:59:07.289Z,33.30
2023-02-16T04:01:34.455Z,36.70
2023-02-16T04:04:01.582Z,34.03
2023-02-16T04:06:28.764Z,32.23
2023-02-16T04:08:56.017Z,32.83
2023-02-16T04:11:41.909Z,33.07
2023-02-16T04:14:09.021Z,32.33
2023-02-16T04:16:36.181Z,30.23
2023-02-16T04:19:03.388Z,33.87
2023-02-16T04:21:30.482Z,31.17
2023-02-16T04:23:57.593Z,35.17
2023-02-16T04:26:24.674Z,33.37
2023-02-16T04:28:52.876Z,31.93
2023-02-16T04:31:20.088Z,33.40
2023-02-16T04:33:47.208Z,31.77
2023-02-16T04:36:14.294Z,32.37
2023-02-16T04:38:41.392Z,35.30
2023-02-16T04:41:08.493Z,30.43
2023-02-16T04:43:35.641Z,29.47
2023-02-16T04:46:02.878Z,33.70
2023-02-16T04:48:29.989Z,32.53
2023-02-16T04:50:57.314Z,34.50
2023-02-16T04:53:24.400Z,34.80
2023-02-16T04:55:51.545Z,40.77
2023-02-16T04:58:18.655Z,32.63
2023-02-16T05:00:45.816Z,30.73
2023-02-16T05:03:12.968Z,35.70
2023-02-16T05:05:40.534Z,34.37
2023-02-16T05:08:07.654Z,35.23
2023-02-16T05:10:34.822Z,30.17
2023-02-16T05:13:20.579Z,33.17
2023-02-16T05:15:47.795Z,34.07
2023-02-16T05:18:14.966Z,35.97
2023-02-16T05:21:00.774Z,33.73
2023-02-16T05:23:27.928Z,31.27
2023-02-16T05:25:55.079Z,34.00
2023-02-16T05:28:22.242Z,31.30
2023-02-16T05:30:49.442Z,34.87
2023-02-16T05:33:16.592Z,37.47
2023-02-16T05:35:43.681Z,34.50
2023-02-16T05:38:10.803Z,36.93
2023-02-16T05:40:37.913Z,34.60
2023-02-16T05:43:05.084Z,34.83
2023-02-16T05:45:32.230Z,29.87
2023-02-16T05:47:59.308Z,33.10
2023-02-16T05:50:26.408Z,32.13
2023-02-16T05:52:53.512Z,35.63
2023-02-16T05:55:20.715Z,32.80
2023-02-16T05:57:47.884Z,34.53
2023-02-16T06:00:15.287Z,32.97
2023-02-16T06:02:42.689Z,30.50
2023-02-16T06:05:10.136Z,32.30
2023-02-16T06:07:37.263Z,30.03
2023-02-16T06:10:04.996Z,34.07
2023-02-16T06:12:32.453Z,41.07
2023-02-16T06:14:59.619Z,37.77
2023-02-16T06:17:26.826Z,39.57
2023-02-16T06:19:53.947Z,31.03
2023-02-16T06:22:21.323Z,34.57
2023-02-16T06:24:48.406Z,44.73
2023-02-16T06:27:15.567Z,34.63
2023-02-16T06:29:42.765Z,38.13
2023-02-16T06:32:10.103Z,36.80
2023-02-16T06:34:37.216Z,35.57
2023-02-16T06:37:04.396Z,37.07
2023-02-16T06:39:31.547Z,33.53
2023-02-16T06:41:58.657Z,32.90
2023-02-16T06:44:25.759Z,36.47
2023-02-16T06:46:52.885Z,41.07
2023-02-16T06:49:21.130Z,33.87
2023-02-16T06:51:49.179Z,33.97
2023-02-16T06:54:16.411Z,30.10
2023-02-16T06:56:43.591Z,32.17
2023-02-16T06:59:11.882Z,35.30
2023-02-16T07:01:39.114Z,38.27
2023-02-16T07:04:06.243Z,35.10
2023-02-16T07:06:33.447Z,41.83
2023-02-16T07:09:00.677Z,34.73
2023-02-16T07:11:27.863Z,36.80
2023-02-16T07:13:55.031Z,37.53
2023-02-16T07:16:22.219Z,33.80
2023-02-16T07:18:49.423Z,34.80
2023-02-16T07:21:16.601Z,32.57
2023-02-16T07:23:43.826Z,34.60
2023-02-16T07:26:10.942Z,31.53
2023-02-16T07:28:38.295Z,29.93
2023-02-16T07:31:09.846Z,34.67
2023-02-16T07:33:37.330Z,37.20
2023-02-16T07:36:04.654Z,35.77
2023-02-16T07:38:31.753Z,31.90
2023-02-16T07:40:59.227Z,28.30
2023-02-16T07:43:26.584Z,32.27
2023-02-16T07:45:53.953Z,31.97
2023-02-16T07:48:21.182Z,39.80
2023-02-16T07:50:48.405Z,32.17
2023-02-16T07:53:15.532Z,29.70
2023-02-16T07:55:43.977Z,35.33
2023-02-16T07:58:11.218Z,33.07
2023-02-16T08:00:38.384Z,30.70
2023-02-16T08:03:05.875Z,35.63
2023-02-16T08:05:34.632Z,31.07
2023-02-16T08:08:01.884Z,35.67
2023-02-16T08:10:29.058Z,30.57
2023-02-16T08:12:56.249Z,34.43
2023-02-16T08:15:23.890Z,29.80
2023-02-16T08:17:51.015Z,29.33
2023-02-16T08:20:18.129Z,39.40
2023-02-16T08:22:45.206Z,27.10
2023-02-16T08:25:12.343Z,112.20
2023-02-16T08:27:39.508Z,67.63
2023-02-16T08:30:12.592Z,30.40
2023-02-16T08:32:43.550Z,31.93
2023-02-16T08:35:10.913Z,33.17
2023-02-16T08:37:39.743Z,29.70
2023-02-16T08:40:08.900Z,29.77
2023-02-16T08:42:36.910Z,28.23
2023-02-16T08:45:04.731Z,29.57
2023-02-16T08:47:31.927Z,25.80
2023-02-16T08:49:59.162Z,28.40
2023-02-16T08:52:26.326Z,28.90
2023-02-16T08:54:53.947Z,27.57
2023-02-16T08:57:21.173Z,35.57
2023-02-16T09:00:08.236Z,30.60
2023-02-16T09:02:35.373Z,30.83
2023-02-16T09:05:02.491Z,25.97
2023-02-16T09:07:29.654Z,28.73
2023-02-16T09:09:57.927Z,26.83
2023-02-16T09:12:25.060Z,25.70
2023-02-16T09:14:54.134Z,25.97
2023-02-16T09:17:21.316Z,29.43
2023-02-16T09:19:48.531Z,29.27
2023-02-16T09:22:15.842Z,31.57
2023-02-16T09:24:42.946Z,32.90
2023-02-16T09:27:11.596Z,30.40
2023-02-16T09:29:40.301Z,32.40
2023-02-16T09:32:09.854Z,27.90
2023-02-16T09:34:38.236Z,28.53
2023-02-16T09:37:05.471Z,33.27
2023-02-16T09:39:33.729Z,36.27
2023-02-16T09:42:19.332Z,31.10
2023-02-16T09:44:46.619Z,33.00
2023-02-16T09:47:33.900Z,33.83
2023-02-16T09:50:03.865Z,28.60
2023-02-16T09:52:40.317Z,32.53
2023-02-16T09:55:11.937Z,29.73
2023-02-16T09:57:55.539Z,30.97
2023-02-16T10:00:23.698Z,30.70
2023-02-16T10:02:54.646Z,27.83
2023-02-16T10:05:21.788Z,28.93
2023-02-16T10:07:57.890Z,30.50
2023-02-16T10:10:51.361Z,29.20
2023-02-16T10:13:19.007Z,40.70
2023-02-16T10:15:46.791Z,30.33
2023-02-16T10:18:31.768Z,31.63
2023-02-16T10:21:00.498Z,30.40
2023-02-16T10:23:33.524Z,28.53
2023-02-16T10:26:05.757Z,32.17
2023-02-16T10:28:38.101Z,28.53
2023-02-16T10:31:12.035Z,32.10
2023-02-16T10:33:41.994Z,33.57
2023-02-16T10:36:27.941Z,28.17
2023-02-16T10:38:55.332Z,30.13
2023-02-16T10:41:31.455Z,30.27
2023-02-16T10:44:02.559Z,36.77
2023-02-16T10:46:35.254Z,30.10
2023-02-16T10:49:02.493Z,30.00
2023-02-16T10:51:33.582Z,33.77
2023-02-16T10:54:03.895Z,29.80
2023-02-16T10:56:30.977Z,29.90
2023-02-16T10:58:59.609Z,32.83
2023-02-16T11:01:36.171Z,37.17
2023-02-16T11:04:03.802Z,34.60
2023-02-16T11:06:30.992Z,33.93
2023-02-16T11:09:01.002Z,29.47
2023-02-16T11:11:29.061Z,28.73
2023-02-16T11:14:03.898Z,32.23
2023-02-16T11:16:31.768Z,32.43
2023-02-16T11:19:09.853Z,26.97
2023-02-16T11:21:46.041Z,29.83
2023-02-16T11:24:14.504Z,34.97
2023-02-16T11:26:41.716Z,27.83
2023-02-16T11:29:19.087Z,45.17
2023-02-16T11:31:46.440Z,30.63
2023-02-16T11:34:16.853Z,33.40
2023-02-16T11:36:45.484Z,32.60
2023-02-16T11:39:15.656Z,30.40
2023-02-16T11:41:49.149Z,30.10
2023-02-16T11:44:36.291Z,28.67
2023-02-16T11:47:06.488Z,31.17
2023-02-16T11:49:35.468Z,31.03
2023-02-16T11:52:18.460Z,40.27
2023-02-16T11:54:49.673Z,33.50
2023-02-16T11:57:23.169Z,28.00
2023-02-16T11:59:50.623Z,30.80
2023-02-16T12:02:18.747Z,34.67
2023-02-16T12:04:45.797Z,32.93
2023-02-16T12:07:26.968Z,38.27
2023-02-16T12:09:56.946Z,30.90
2023-02-16T12:12:42.941Z,32.13
2023-02-16T12:15:19.452Z,27.47
2023-02-16T12:17:55.461Z,30.63
2023-02-16T12:20:37.827Z,31.43
2023-02-16T12:23:18.216Z,36.83
2023-02-16T12:26:00.688Z,33.63
2023-02-16T12:28:42.855Z,30.87
2023-02-16T12:31:22.349Z,34.97
2023-02-16T12:33:54.560Z,28.00
2023-02-16T12:36:29.650Z,40.27
2023-02-16T12:39:15.312Z,36.27
2023-02-16T12:42:02.993Z,32.30
2023-02-16T12:44:35.620Z,32.87
2023-02-16T12:47:12.981Z,33.70
2023-02-16T12:49:55.460Z,32.80
2023-02-16T12:52:25.108Z,39.20
2023-02-16T12:54:57.426Z,39.80
2023-02-16T12:57:29.955Z,35.57
2023-02-16T13:00:25.329Z,37.03
2023-02-16T13:03:00.314Z,36.50
2023-02-16T13:05:34.797Z,32.37
2023-02-16T13:08:39.194Z,34.33
2023-02-16T13:11:30.484Z,36.37
2023-02-16T13:14:04.402Z,36.57
2023-02-16T13:16:50.550Z,32.87
2023-02-16T13:19:18.503Z,36.70
2023-02-16T13:21:54.273Z,31.03
2023-02-16T13:24:44.274Z,37.20
2023-02-16T13:27:14.054Z,39.20
2023-02-16T13:30:00.429Z,40.27
2023-02-16T13:32:30.230Z,28.73
2023-02-16T13:35:40.090Z,35.27
2023-02-16T13:38:28.409Z,34.07
2023-02-16T13:41:26.453Z,36.47
2023-02-16T13:44:00.337Z,37.13
2023-02-16T13:46:39.908Z,34.53
2023-02-16T13:49:07.650Z,32.63
2023-02-16T13:51:44.320Z,32.20
2023-02-16T13:54:30.999Z,36.97
2023-02-16T13:56:57.965Z,37.33
2023-02-16T13:59:24.877Z,32.00
2023-02-16T14:01:54.253Z,40.70
2023-02-16T14:04:24.770Z,34.17
2023-02-16T14:07:03.807Z,38.80
2023-02-16T14:09:38.136Z,42.80
2023-02-16T14:12:36.046Z,39.17
2023-02-16T14:15:18.422Z,41.30
2023-02-16T14:17:45.870Z,36.70
2023-02-16T14:20:16.201Z,39.50
2023-02-16T14:22:45.667Z,33.37
2023-02-16T14:25:24.019Z,38.77
2023-02-16T14:27:53.428Z,31.70
2023-02-16T14:30:32.628Z,32.77
2023-02-16T14:33:17.444Z,30.07
2023-02-16T14:35:59.935Z,35.17
2023-02-16T14:38:29.257Z,32.60
2023-02-16T14:40:57.228Z,27.15
2023-02-16T14:43:41.682Z,36.60
2023-02-16T14:46:34.201Z,34.17
2023-02-16T14:49:26.002Z,32.30
2023-02-16T14:52:27.069Z,26.40
2023-02-16T14:55:31.495Z,32.25
2023-02-16T14:58:28.184Z,29.30
2023-02-16T15:01:01.446Z,33.90
2023-02-16T15:03:45.333Z,32.30
2023-02-16T15:06:31.565Z,37.95
2023-02-16T15:09:01.812Z,31.73
2023-02-16T15:11:34.869Z,33.42
2023-02-16T15:14:07.815Z,33.15
2023-02-16T15:16:37.897Z,34.47
2023-02-16T15:19:10.494Z,27.43
2023-02-16T15:21:37.576Z,27.83
2023-02-16T15:24:05.930Z,31.58
2023-02-16T15:26:35.722Z,31.87
2023-02-16T15:29:23.533Z,34.20
2023-02-16T15:31:51.075Z,32.77
2023-02-16T15:34:34.927Z,28.77
2023-02-16T15:37:19.048Z,33.87
2023-02-16T15:40:02.912Z,32.33
2023-02-16T15:42:34.127Z,27.37
2023-02-16T15:45:00.861Z,29.97
2023-02-16T15:47:27.615Z,30.93
2023-02-16T15:49:54.650Z,31.57
2023-02-16T15:52:33.558Z,30.07
2023-02-16T15:55:02.023Z,26.27
2023-02-16T15:57:38.132Z,26.47
2023-02-16T16:00:33.149Z,28.03
2023-02-16T16:03:01.575Z,30.77
2023-02-16T16:05:39.731Z,27.33
2023-02-16T16:08:11.224Z,43.17
2023-02-16T16:10:42.183Z,28.77
2023-02-16T16:13:19.024Z,26.70
2023-02-16T16:15:50.142Z,31.27
2023-02-16T16:18:46.213Z,30.20
2023-02-16T16:21:18.919Z,32.90
2023-02-16T16:23:56.988Z,32.53
2023-02-16T16:26:25.402Z,25.77
2023-02-16T16:28:52.921Z,24.17
2023-02-16T16:31:22.748Z,29.70
2023-02-16T16:33:58.753Z,32.43
2023-02-16T16:36:33.319Z,28.67
2023-02-16T16:39:23.678Z,36.77
2023-02-16T16:42:17.669Z,28.63
2023-02-16T16:44:53.075Z,26.37
2023-02-16T16:47:27.622Z,24.90
2023-02-16T16:50:15.238Z,21.83
2023-02-16T16:52:47.574Z,21.83
2023-02-16T16:55:24.899Z,24.93
2023-02-16T16:58:04.450Z,28.27
2023-02-16T17:00:35.249Z,18.73
2023-02-16T17:03:04.344Z,24.47
2023-02-16T17:05:31.152Z,22.40
2023-02-16T17:07:57.949Z,18.20
2023-02-16T17:10:25.091Z,20.50
2023-02-16T17:12:55.977Z,19.47
2023-02-16T17:15:34.504Z,20.57
2023-02-16T17:18:01.662Z,22.00
2023-02-16T17:20:28.615Z,19.67
2023-02-16T17:22:55.472Z,19.07
2023-02-16T17:25:22.214Z,18.57
2023-02-16T17:27:48.970Z,20.30
2023-02-16T17:30:16.167Z,20.20
2023-02-16T17:32:43.057Z,24.93
2023-02-16T17:35:11.187Z,18.13
2023-02-16T17:37:37.909Z,16.60
2023-02-16T17:40:09.740Z,20.37
2023-02-16T17:42:37.535Z,15.83
2023-02-16T17:45:04.470Z,18.17
2023-02-16T17:47:31.233Z,16.30
2023-02-16T17:49:57.952Z,16.13
2023-02-16T17:52:30.403Z,17.10
2023-02-16T17:54:57.094Z,19.70
2023-02-16T17:57:23.790Z,16.77
2023-02-16T17:59:50.493Z,24.83
2023-02-16T18:02:17.210Z,14.47
2023-02-16T18:04:44.237Z,14.10
2023-02-16T18:07:15.029Z,12.53
2023-02-16T18:09:41.898Z,14.80
2023-02-16T18:12:08.695Z,20.53
2023-02-16T18:14:36.196Z,17.53
2023-02-16T18:17:04.298Z,16.33
2023-02-16T18:19:31.952Z,16.00
2023-02-16T18:21:58.776Z,15.10
2023-02-16T18:24:25.800Z,17.17
2023-02-16T18:26:54.705Z,14.87
2023-02-16T18:29:21.538Z,16.27
2023-02-16T18:31:48.387Z,15.53
2023-02-16T18:34:15.166Z,16.47
2023-02-16T18:36:41.979Z,19.87
2023-02-16T18:39:09.307Z,13.10
2023-02-16T18:41:36.552Z,14.10
2023-02-16T18:44:03.628Z,11.87
2023-02-16T18:46:30.513Z,14.07
2023-02-16T18:48:57.320Z,15.03
2023-02-16T18:51:25.897Z,15.47
2023-02-16T18:53:52.629Z,12.80
2023-02-16T18:56:19.352Z,19.23
2023-02-16T18:58:46.054Z,18.30
2023-02-16T19:01:15.289Z,16.13
2023-02-16T19:03:42.257Z,16.40
2023-02-16T19:06:09.254Z,21.37
2023-02-16T19:08:36.414Z,13.73
2023-02-16T19:11:03.200Z,16.70
2023-02-16T19:13:29.977Z,14.77
2023-02-16T19:15:56.969Z,15.10
2023-02-16T19:18:23.874Z,18.47
2023-02-16T19:20:50.647Z,15.83
2023-02-16T19:23:17.673Z,16.03
2023-02-16T19:25:44.448Z,15.47
2023-02-16T19:28:11.265Z,22.83
2023-02-16T19:30:38.078Z,16.37
2023-02-16T19:33:05.037Z,18.30
2023-02-16T19:35:31.907Z,19.27
2023-02-16T19:38:00.625Z,20.43
2023-02-16T19:40:27.445Z,14.13
2023-02-16T19:42:54.277Z,18.20
2023-02-16T19:45:21.074Z,14.97
2023-02-16T19:47:50.852Z,14.93
2023-02-16T19:50:17.647Z,15.27
2023-02-16T19:52:44.349Z,16.87
2023-02-16T19:55:11.622Z,15.53
2023-02-16T19:57:38.656Z,14.70
2023-02-16T20:00:05.901Z,14.83
2023-02-16T20:02:32.964Z,17.40
2023-02-16T20:04:59.688Z,23.87
2023-02-16T20:07:26.713Z,17.60
2023-02-16T20:10:00.928Z,17.17
2023-02-16T20:12:28.703Z,15.70
2023-02-16T20:15:05.176Z,16.47
2023-02-16T20:17:32.141Z,16.33
2023-02-16T20:19:59.739Z,20.33
2023-02-16T20:22:27.898Z,17.40
2023-02-16T20:24:57.648Z,18.00
2023-02-16T20:27:24.542Z,20.67
2023-02-16T20:29:51.405Z,22.20
2023-02-16T20:32:18.290Z,24.20
2023-02-16T20:34:45.175Z,23.63
2023-02-16T20:37:12.423Z,26.87
2023-02-16T20:39:39.198Z,24.23
2023-02-16T20:42:06.006Z,19.90
2023-02-16T20:44:32.738Z,22.47
2023-02-16T20:46:59.508Z,23.87
2023-02-16T20:49:26.358Z,17.07
2023-02-16T20:51:53.201Z,20.17
2023-02-16T20:54:20.119Z,18.80
2023-02-16T20:56:46.961Z,20.57
2023-02-16T20:59:13.726Z,22.83
2023-02-16T21:01:43.845Z,19.70
2023-02-16T21:04:10.662Z,20.27
2023-02-16T21:06:37.921Z,21.70
2023-02-16T21:09:06.245Z,19.83
2023-02-16T21:11:33.434Z,17.17
2023-02-16T21:14:03.695Z,15.97
2023-02-16T21:16:30.809Z,17.67
2023-02-16T21:18:57.808Z,19.50
2023-02-16T21:21:25.125Z,20.73
2023-02-16T21:23:54.057Z,21.03
2023-02-16T21:26:22.884Z,18.37
2023-02-16T21:28:49.925Z,22.50
2023-02-16T21:31:20.195Z,20.40
2023-02-16T21:33:47.462Z,18.13
2023-02-16T21:36:17.325Z,18.63
2023-02-16T21:38:44.906Z,25.23
2023-02-16T21:41:25.883Z,21.20
2023-02-16T21:44:03.505Z,22.17
2023-02-16T21:46:50.470Z,25.90
2023-02-16T21:49:19.755Z,27.70
2023-02-16T21:51:47.650Z,25.23
2023-02-16T21:54:18.275Z,22.43
2023-02-16T21:56:50.096Z,22.93
2023-02-16T21:59:18.956Z,20.20
2023-02-16T22:01:48.632Z,19.20
2023-02-16T22:04:18.438Z,21.93
2023-02-16T22:06:46.931Z,17.47
2023-02-16T22:09:17.785Z,20.13
2023-02-16T22:11:46.098Z,23.63
2023-02-16T22:14:13.110Z,18.17
2023-02-16T22:16:40.445Z,23.07
2023-02-16T22:19:11.273Z,22.63
2023-02-16T22:21:39.910Z,23.07
2023-02-16T22:24:07.932Z,20.10
2023-02-16T22:26:35.903Z,23.63
2023-02-16T22:29:04.764Z,19.77
2023-02-16T22:31:31.943Z,17.37
2023-02-16T22:34:01.222Z,18.63
2023-02-16T22:36:28.076Z,20.87
2023-02-16T22:38:55.425Z,23.67
2023-02-16T22:41:22.630Z,18.80
2023-02-16T22:43:53.959Z,25.50
2023-02-16T22:46:21.483Z,19.40
2023-02-16T22:48:48.417Z,22.27
2023-02-16T22:51:16.834Z,16.80
2023-02-16T22:53:43.630Z,20.57
2023-02-16T22:56:14.355Z,20.77
2023-02-16T22:58:41.121Z,18.97
2023-02-16T23:01:16.053Z,22.80
2023-02-16T23:03:45.356Z,18.77
2023-02-16T23:06:18.407Z,16.73
2023-02-16T23:08:46.508Z,20.10
2023-02-16T23:11:13.839Z,18.20
2023-02-16T23:13:40.933Z,26.97
2023-02-16T23:16:11.462Z,20.93
2023-02-16T23:18:38.693Z,18.90
2023-02-16T23:21:18.231Z,19.17
2023-02-16T23:23:46.148Z,21.33
2023-02-16T23:26:13.499Z,16.97
2023-02-16T23:28:42.180Z,18.30
2023-02-16T23:31:10.007Z,17.53
2023-02-16T23:33:36.834Z,16.47
2023-02-16T23:36:03.879Z,17.40
2023-02-16T23:38:30.825Z,15.63
2023-02-16T23:40:57.664Z,17.27
2023-02-16T23:43:25.516Z,18.63
2023-02-16T23:45:53.241Z,15.60
2023-02-16T23:48:20.333Z,15.83
2023-02-16T23:50:47.239Z,18.03
2023-02-16T23:53:14.013Z,16.30
2023-02-16T23:55:40.810Z,17.47
2023-02-16T23:58:08.048Z,19.47
